createdAt,value
2023-05-10T00:01:44.156Z,83.23
2023-05-10T00:04:13.935Z,83.40
2023-05-10T00:06:42.322Z,83.84
2023-05-10T00:09:13.405Z,83.77
2023-05-10T00:11:43.387Z,84.00
2023-05-10T00:14:10.708Z,84.17
2023-05-10T00:16:38.008Z,83.77
2023-05-10T00:19:05.348Z,84.14
2023-05-10T00:21:33.406Z,84.05
2023-05-10T00:24:04.200Z,84.42
2023-05-10T00:26:32.902Z,84.19
2023-05-10T00:29:00.123Z,84.11
2023-05-10T00:31:27.447Z,84.57
2023-05-10T00:33:54.853Z,84.45
2023-05-10T00:36:22.341Z,84.26
2023-05-10T00:38:49.566Z,84.08
2023-05-10T00:41:18.826Z,83.95
2023-05-10T00:43:47.554Z,83.16
2023-05-10T00:46:15.774Z,83.18
2023-05-10T00:48:48.518Z,83.79
2023-05-10T00:51:15.719Z,83.84
2023-05-10T00:53:44.880Z,83.82
2023-05-10T00:56:12.401Z,83.79
2023-05-10T00:58:39.776Z,83.67
2023-05-10T01:01:10.300Z,83.73
2023-05-10T01:03:38.047Z,83.27
2023-05-10T01:06:06.039Z,83.71
2023-05-10T01:08:33.479Z,83.84
2023-05-10T01:11:00.896Z,84.19
2023-05-10T01:13:34.332Z,84.55
2023-05-10T01:16:04.291Z,85.15
2023-05-10T01:18:36.579Z,84.71
2023-05-10T01:21:16.000Z,84.12
2023-05-10T01:24:20.761Z,84.06
2023-05-10T01:27:38.983Z,83.88
2023-05-10T01:30:36.377Z,85.22
2023-05-10T01:33:11.246Z,86.15
2023-05-10T01:35:42.846Z,86.52
2023-05-10T01:38:18.080Z,86.47
2023-05-10T01:40:53.457Z,86.30
2023-05-10T01:43:27.613Z,86.01
2023-05-10T01:46:01.814Z,86.06
2023-05-10T01:48:34.566Z,86.65
2023-05-10T01:51:02.223Z,86.16
2023-05-10T01:53:30.371Z,86.18
2023-05-10T01:55:58.799Z,86.43
2023-05-10T01:58:30.813Z,86.98
2023-05-10T02:01:01.899Z,86.78
2023-05-10T02:03:39.288Z,86.19
2023-05-10T02:06:09.590Z,86.39
2023-05-10T02:08:41.172Z,86.38
2023-05-10T02:11:14.253Z,86.47
2023-05-10T02:13:48.080Z,86.61
2023-05-10T02:16:19.091Z,86.37
2023-05-10T02:18:49.193Z,86.18
2023-05-10T02:21:17.414Z,85.97
2023-05-10T02:23:54.255Z,85.94
2023-05-10T02:26:23.355Z,85.70
2023-05-10T02:28:51.748Z,86.09
2023-05-10T02:31:25.475Z,85.84
2023-05-10T02:33:55.996Z,85.27
2023-05-10T02:36:24.325Z,85.74
2023-05-10T02:38:53.993Z,85.91
2023-05-10T02:41:23.793Z,85.96
2023-05-10T02:43:53.169Z,86.00
2023-05-10T02:46:20.783Z,86.00
2023-05-10T02:48:50.017Z,85.35
2023-05-10T02:51:22.765Z,85.10
2023-05-10T02:53:52.101Z,85.74
2023-05-10T02:56:27.042Z,85.44
2023-05-10T02:58:54.254Z,85.17
2023-05-10T03:01:23.209Z,84.83
2023-05-10T03:03:52.330Z,85.44
2023-05-10T03:06:23.272Z,85.55
2023-05-10T03:08:52.594Z,85.72
2023-05-10T03:11:33.234Z,85.91
2023-05-10T03:14:14.073Z,85.85
2023-05-10T03:16:50.082Z,85.74
2023-05-10T03:19:21.890Z,86.15
2023-05-10T03:21:54.799Z,86.94
2023-05-10T03:24:24.411Z,86.82
2023-05-10T03:26:53.595Z,86.78
2023-05-10T03:29:23.017Z,87.25
2023-05-10T03:31:55.348Z,87.25
2023-05-10T03:34:25.216Z,87.26
2023-05-10T03:36:53.897Z,87.42
2023-05-10T03:39:25.334Z,87.05
2023-05-10T03:41:52.677Z,87.02
2023-05-10T03:44:19.944Z,87.25
2023-05-10T03:46:47.372Z,87.30
2023-05-10T03:49:14.868Z,87.35
2023-05-10T03:51:42.090Z,87.25
2023-05-10T03:54:14.852Z,85.75
2023-05-10T03:56:43.738Z,85.76
2023-05-10T03:59:12.865Z,86.78
2023-05-10T04:01:40.099Z,86.62
2023-05-10T04:04:07.761Z,86.41
2023-05-10T04:06:35.024Z,86.51
2023-05-10T04:09:06.925Z,86.81
2023-05-10T04:11:37.598Z,86.84
2023-05-10T04:14:05.029Z,86.49
2023-05-10T04:16:32.432Z,86.67
2023-05-10T04:19:00.862Z,87.09
2023-05-10T04:21:28.387Z,86.95
2023-05-10T04:23:58.357Z,87.08
2023-05-10T04:26:26.852Z,87.27
2023-05-10T04:28:57.354Z,87.79
2023-05-10T04:31:24.724Z,87.70
2023-05-10T04:33:52.120Z,87.63
2023-05-10T04:36:21.401Z,87.62
2023-05-10T04:38:50.486Z,87.11
2023-05-10T04:41:17.741Z,86.95
2023-05-10T04:43:50.158Z,86.57
2023-05-10T04:46:20.068Z,86.67
2023-05-10T04:48:47.432Z,86.76
2023-05-10T04:51:14.925Z,86.70
2023-05-10T04:53:46.426Z,86.48
2023-05-10T04:56:21.036Z,86.27
2023-05-10T04:58:48.265Z,86.14
2023-05-10T05:01:15.578Z,86.13
2023-05-10T05:03:44.607Z,86.32
2023-05-10T05:06:12.307Z,85.99
2023-05-10T05:08:39.578Z,85.47
2023-05-10T05:11:09.825Z,85.22
2023-05-10T05:13:37.130Z,85.20
2023-05-10T05:16:06.755Z,84.84
2023-05-10T05:18:36.756Z,84.74
2023-05-10T05:21:18.041Z,84.64
2023-05-10T05:23:45.552Z,84.28
2023-05-10T05:26:12.885Z,84.43
2023-05-10T05:28:40.247Z,84.47
2023-05-10T05:31:11.640Z,84.08
2023-05-10T05:33:42.656Z,83.77
2023-05-10T05:36:11.553Z,83.21
2023-05-10T05:38:40.414Z,81.95
2023-05-10T05:41:07.810Z,82.23
2023-05-10T05:43:38.061Z,80.97
2023-05-10T05:46:08.669Z,80.95
2023-05-10T05:48:36.484Z,81.28
2023-05-10T05:52:14.586Z,80.86
2023-05-10T05:54:58.134Z,79.17
2023-05-10T05:57:25.598Z,79.35
2023-05-10T05:59:56.078Z,79.48
2023-05-10T06:02:23.550Z,79.97
2023-05-10T06:04:51.628Z,79.60
2023-05-10T06:07:19.032Z,78.62
2023-05-10T06:09:46.275Z,78.39
2023-05-10T06:12:15.208Z,77.03
2023-05-10T06:14:42.583Z,76.72
2023-05-10T06:17:09.955Z,76.48
2023-05-10T06:19:37.905Z,77.43
2023-05-10T06:22:08.005Z,76.80
2023-05-10T06:24:35.406Z,75.91
2023-05-10T06:27:05.725Z,76.34
2023-05-10T06:29:34.518Z,74.66
2023-05-10T06:32:04.599Z,75.96
2023-05-10T06:34:37.564Z,75.76
2023-05-10T06:37:04.867Z,75.27
2023-05-10T06:39:32.125Z,74.13
2023-05-10T06:41:59.668Z,73.80
2023-05-10T06:44:35.614Z,74.58
2023-05-10T06:47:05.149Z,71.78
2023-05-10T06:49:36.020Z,72.43
2023-05-10T06:52:03.342Z,70.94
2023-05-10T06:54:53.055Z,70.52
2023-05-10T06:57:31.347Z,71.94
2023-05-10T07:00:01.252Z,72.22
2023-05-10T07:02:29.161Z,69.82
2023-05-10T07:04:56.817Z,68.57
2023-05-10T07:07:31.424Z,67.75
2023-05-10T07:09:59.349Z,67.21
2023-05-10T07:12:26.868Z,69.50
2023-05-10T07:14:59.634Z,68.25
2023-05-10T07:17:28.693Z,67.36
2023-05-10T07:20:05.644Z,68.89
2023-05-10T07:22:33.123Z,66.40
2023-05-10T07:25:04.297Z,67.82
2023-05-10T07:27:31.710Z,66.30
2023-05-10T07:30:01.661Z,66.67
2023-05-10T07:32:30.750Z,66.53
2023-05-10T07:35:02.282Z,64.87
2023-05-10T07:37:29.608Z,63.58
2023-05-10T07:39:57.322Z,63.53
2023-05-10T07:42:24.774Z,61.66
2023-05-10T07:44:52.319Z,65.12
2023-05-10T07:47:19.965Z,62.32
2023-05-10T07:49:57.485Z,62.72
2023-05-10T07:52:25.038Z,64.69
2023-05-10T07:54:52.280Z,65.19
2023-05-10T08:01:36.454Z,64.24
2023-05-10T08:04:03.997Z,65.10
2023-05-10T08:06:32.989Z,63.80
2023-05-10T08:09:00.401Z,64.64
2023-05-10T08:11:33.259Z,64.02
2023-05-10T08:14:02.358Z,63.21
2023-05-10T08:16:30.098Z,62.75
2023-05-10T08:18:57.711Z,63.82
2023-05-10T08:21:25.272Z,62.29
2023-05-10T08:23:54.024Z,60.25
2023-05-10T08:26:22.830Z,61.23
2023-05-10T08:28:50.346Z,61.87
2023-05-10T08:31:17.928Z,62.73
2023-05-10T08:33:45.230Z,63.38
2023-05-10T08:36:15.288Z,62.03
2023-05-10T08:38:42.616Z,62.03
2023-05-10T08:41:12.326Z,59.91
2023-05-10T08:43:42.591Z,59.36
2023-05-10T08:46:11.687Z,60.11
2023-05-10T08:48:40.265Z,58.07
2023-05-10T08:51:09.347Z,59.17
2023-05-10T08:53:38.579Z,60.43
2023-05-10T08:56:06.744Z,59.08
2023-05-10T08:58:35.570Z,56.44
2023-05-10T09:01:03.056Z,54.59
2023-05-10T09:03:31.262Z,53.64
2023-05-10T09:05:58.795Z,53.99
2023-05-10T09:08:27.436Z,54.26
2023-05-10T09:10:55.740Z,53.96
2023-05-10T09:13:24.298Z,52.30
2023-05-10T09:15:54.310Z,53.92
2023-05-10T09:18:21.720Z,53.80
2023-05-10T09:20:53.410Z,54.24
2023-05-10T09:23:22.736Z,53.53
2023-05-10T09:26:05.614Z,53.82
2023-05-10T09:28:35.053Z,54.36
2023-05-10T09:31:03.782Z,54.43
2023-05-10T09:33:49.295Z,53.87
2023-05-10T09:36:32.765Z,53.43
2023-05-10T09:39:00.825Z,53.51
2023-05-10T09:41:29.193Z,54.03
2023-05-10T09:43:57.727Z,54.47
2023-05-10T09:46:27.256Z,53.51
2023-05-10T09:48:54.554Z,53.65
2023-05-10T09:51:22.048Z,53.47
2023-05-10T09:53:51.672Z,52.45
2023-05-10T09:56:33.979Z,52.53
2023-05-10T09:59:07.860Z,54.01
2023-05-10T10:01:40.147Z,54.98
2023-05-10T10:04:10.921Z,52.53
2023-05-10T10:06:47.447Z,53.69
2023-05-10T10:09:20.385Z,53.72
2023-05-10T10:11:54.778Z,54.33
2023-05-10T10:14:25.514Z,52.13
2023-05-10T10:17:05.539Z,51.86
2023-05-10T10:19:36.913Z,52.61
2023-05-10T10:22:04.652Z,52.45
2023-05-10T10:24:32.055Z,51.54
2023-05-10T10:27:09.123Z,50.55
2023-05-10T10:29:41.058Z,50.75
2023-05-10T10:32:23.338Z,52.09
2023-05-10T10:34:54.084Z,49.46
2023-05-10T10:37:21.639Z,49.39
2023-05-10T10:39:51.832Z,51.15
2023-05-10T10:42:49.197Z,49.84
2023-05-10T10:45:17.041Z,51.77
2023-05-10T10:48:15.180Z,50.03
2023-05-10T10:50:47.022Z,51.39
2023-05-10T10:53:15.313Z,51.47
2023-05-10T10:55:52.130Z,50.28
2023-05-10T11:01:45.696Z,48.96
2023-05-10T11:04:26.686Z,47.82
2023-05-10T11:07:20.820Z,48.84
2023-05-10T11:09:49.018Z,48.59
2023-05-10T11:12:16.331Z,50.04
2023-05-10T11:14:43.797Z,47.15
2023-05-10T11:17:27.689Z,47.67
2023-05-10T11:20:11.815Z,47.86
2023-05-10T11:22:59.380Z,45.49
2023-05-10T11:25:52.417Z,44.58
2023-05-10T11:28:22.125Z,45.94
2023-05-10T11:30:49.503Z,44.67
2023-05-10T11:33:17.986Z,46.54
2023-05-10T11:35:50.038Z,46.91
2023-05-10T11:38:17.709Z,48.99
2023-05-10T11:40:45.240Z,47.69
2023-05-10T11:43:12.678Z,44.68
2023-05-10T11:45:43.845Z,43.89
2023-05-10T11:48:11.208Z,46.06
2023-05-10T11:50:38.519Z,47.18
2023-05-10T11:53:07.340Z,47.37
2023-05-10T11:55:35.472Z,45.84
2023-05-10T11:58:03.718Z,44.58
2023-05-10T12:00:35.464Z,42.02
2023-05-10T12:03:03.494Z,41.96
2023-05-10T12:05:33.892Z,44.42
2023-05-10T12:08:49.504Z,45.56
2023-05-10T12:11:23.102Z,45.79
2023-05-10T12:13:51.063Z,46.38
2023-05-10T12:16:20.069Z,46.56
2023-05-10T12:18:52.320Z,46.46
2023-05-10T12:21:22.286Z,45.21
2023-05-10T12:23:53.612Z,45.72
2023-05-10T12:26:23.480Z,46.30
2023-05-10T12:28:50.746Z,47.28
2023-05-10T12:31:17.961Z,46.90
2023-05-10T12:33:46.284Z,45.90
2023-05-10T12:36:14.814Z,46.01
2023-05-10T12:38:44.340Z,46.36
2023-05-10T12:41:14.485Z,45.58
2023-05-10T12:43:42.026Z,42.63
2023-05-10T12:46:10.209Z,41.10
2023-05-10T12:48:38.417Z,38.99
2023-05-10T12:51:06.806Z,39.82
2023-05-10T12:53:34.124Z,37.48
2023-05-10T12:56:01.578Z,38.62
2023-05-10T13:01:01.191Z,41.64
2023-05-10T13:03:28.334Z,40.82
2023-05-10T13:05:55.486Z,43.98
2023-05-10T13:08:22.632Z,44.30
2023-05-10T13:10:50.003Z,43.23
2023-05-10T13:13:17.322Z,46.27
2023-05-10T13:15:46.154Z,44.87
2023-05-10T13:18:13.368Z,46.58
2023-05-10T13:20:40.859Z,42.48
2023-05-10T13:23:08.066Z,44.47
2023-05-10T13:25:35.629Z,43.56
2023-05-10T13:28:02.958Z,45.34
2023-05-10T13:30:30.438Z,43.44
2023-05-10T13:32:59.084Z,48.12
2023-05-10T13:35:26.410Z,43.71
2023-05-10T13:37:58.807Z,44.25
2023-05-10T13:40:25.966Z,43.41
2023-05-10T13:42:54.018Z,46.18
2023-05-10T13:45:21.279Z,47.62
2023-05-10T13:47:48.581Z,45.69
2023-05-10T13:50:17.930Z,45.80
2023-05-10T13:52:45.045Z,45.13
2023-05-10T13:55:14.198Z,44.45
2023-05-10T13:57:41.818Z,44.04
2023-05-10T14:00:10.683Z,44.05
2023-05-10T14:02:37.927Z,45.04
2023-05-10T14:05:06.117Z,43.26
2023-05-10T14:07:34.785Z,42.08
2023-05-10T14:10:02.073Z,43.63
2023-05-10T14:12:29.174Z,44.68
2023-05-10T14:14:56.311Z,43.99
2023-05-10T14:17:23.566Z,44.85
2023-05-10T14:19:50.818Z,47.82
2023-05-10T14:22:17.981Z,44.78
2023-05-10T14:24:47.903Z,44.65
2023-05-10T14:27:15.153Z,46.11
2023-05-10T14:29:42.456Z,44.10
2023-05-10T14:32:09.659Z,44.38
2023-05-10T14:34:36.766Z,44.93
2023-05-10T14:37:03.926Z,44.37
2023-05-10T14:39:31.630Z,41.23
2023-05-10T14:42:00.163Z,42.59
2023-05-10T14:44:27.476Z,43.87
2023-05-10T14:46:54.587Z,44.54
2023-05-10T14:49:23.784Z,45.37
2023-05-10T14:51:51.154Z,46.91
2023-05-10T14:54:18.301Z,46.53
2023-05-10T14:56:46.057Z,46.12
2023-05-10T14:59:14.641Z,45.30
2023-05-10T15:01:43.283Z,45.43
2023-05-10T15:04:11.054Z,47.22
2023-05-10T15:06:38.604Z,47.49
2023-05-10T15:09:05.723Z,47.81
2023-05-10T15:11:33.101Z,45.85
2023-05-10T15:14:00.282Z,45.86
2023-05-10T15:16:28.945Z,46.70
2023-05-10T15:18:56.287Z,46.72
2023-05-10T15:21:23.478Z,46.90
2023-05-10T15:23:50.617Z,47.42
2023-05-10T15:26:17.721Z,48.21
2023-05-10T15:28:45.027Z,48.63
2023-05-10T15:31:12.265Z,47.39
2023-05-10T15:33:40.748Z,47.21
2023-05-10T15:36:08.305Z,46.67
2023-05-10T15:38:35.495Z,46.72
2023-05-10T15:41:02.556Z,47.06
2023-05-10T15:43:29.677Z,46.60
2023-05-10T15:45:56.797Z,47.21
2023-05-10T15:48:23.966Z,47.09
2023-05-10T15:50:52.612Z,47.76
2023-05-10T15:53:19.891Z,49.17
2023-05-10T15:55:47.185Z,49.48
2023-05-10T15:58:14.371Z,47.15
2023-05-10T16:00:41.609Z,47.27
2023-05-10T16:03:09.083Z,48.43
2023-05-10T16:05:36.351Z,48.31
2023-05-10T16:08:05.040Z,47.94
2023-05-10T16:10:33.420Z,47.87
2023-05-10T16:13:02.391Z,48.18
2023-05-10T16:15:29.706Z,48.51
2023-05-10T16:17:58.461Z,49.48
2023-05-10T16:20:25.928Z,48.42
2023-05-10T16:22:53.129Z,48.62
2023-05-10T16:25:21.954Z,49.57
2023-05-10T16:27:49.231Z,49.02
2023-05-10T16:30:16.505Z,48.51
2023-05-10T16:32:43.669Z,48.48
2023-05-10T16:35:11.094Z,48.07
2023-05-10T16:37:38.323Z,47.26
2023-05-10T16:40:07.038Z,46.58
2023-05-10T16:42:35.927Z,47.54
2023-05-10T16:45:07.651Z,48.97
2023-05-10T16:47:35.559Z,47.35
2023-05-10T16:50:03.887Z,48.56
2023-05-10T16:52:32.551Z,48.32
2023-05-10T16:54:59.761Z,48.22
2023-05-10T16:57:27.282Z,47.86
2023-05-10T16:59:56.492Z,49.22
2023-05-10T17:02:24.000Z,48.05
2023-05-10T17:04:53.227Z,47.90
2023-05-10T17:07:20.739Z,49.15
2023-05-10T17:09:47.956Z,48.45
2023-05-10T17:12:15.199Z,48.90
2023-05-10T17:14:43.559Z,51.10
2023-05-10T17:17:12.110Z,50.86
2023-05-10T17:19:39.374Z,50.99
2023-05-10T17:22:06.537Z,52.01
2023-05-10T17:24:33.771Z,50.04
2023-05-10T17:27:01.100Z,50.30
2023-05-10T17:29:29.116Z,51.13
2023-05-10T17:31:56.479Z,51.95
2023-05-10T17:34:25.517Z,52.97
2023-05-10T17:36:52.771Z,53.05
2023-05-10T17:39:19.989Z,53.53
2023-05-10T17:41:47.274Z,53.49
2023-05-10T17:44:14.479Z,53.69
2023-05-10T17:46:41.724Z,53.99
2023-05-10T17:49:08.934Z,54.81
2023-05-10T17:51:37.536Z,54.65
2023-05-10T17:54:04.804Z,54.98
2023-05-10T17:56:32.015Z,54.80
2023-05-10T17:58:59.248Z,54.47
2023-05-10T18:01:26.564Z,54.72
2023-05-10T18:03:54.021Z,55.44
2023-05-10T18:06:21.291Z,55.29
2023-05-10T18:08:49.957Z,55.67
2023-05-10T18:11:17.205Z,55.06
2023-05-10T18:13:44.382Z,55.06
2023-05-10T18:16:13.515Z,56.20
2023-05-10T18:18:40.910Z,55.84
2023-05-10T18:21:08.137Z,55.92
2023-05-10T18:23:35.392Z,56.41
2023-05-10T18:26:03.991Z,56.29
2023-05-10T18:28:31.320Z,56.48
2023-05-10T18:30:58.529Z,57.14
2023-05-10T18:33:25.870Z,57.74
2023-05-10T18:35:53.118Z,57.80
2023-05-10T18:38:20.515Z,58.11
2023-05-10T18:40:47.832Z,58.54
2023-05-10T18:43:16.454Z,58.95
2023-05-10T18:45:44.092Z,59.39
2023-05-10T18:48:11.298Z,59.65
2023-05-10T18:50:38.485Z,58.94
2023-05-10T18:53:05.901Z,58.97
2023-05-10T18:55:33.151Z,59.57
2023-05-10T18:58:00.592Z,59.30
2023-05-10T19:00:29.179Z,58.92
2023-05-10T19:02:57.164Z,59.32
2023-05-10T19:05:31.624Z,59.77
2023-05-10T19:07:59.219Z,59.50
2023-05-10T19:10:27.941Z,59.43
2023-05-10T19:12:55.627Z,59.87
2023-05-10T19:15:23.370Z,60.24
2023-05-10T19:17:52.607Z,60.15
2023-05-10T19:20:20.078Z,60.42
2023-05-10T19:23:02.215Z,61.31
2023-05-10T19:25:35.259Z,61.72
2023-05-10T19:28:02.737Z,61.41
2023-05-10T19:30:31.765Z,61.77
2023-05-10T19:33:03.253Z,61.94
2023-05-10T19:35:31.105Z,61.80
2023-05-10T19:37:58.787Z,61.52
2023-05-10T19:40:26.270Z,61.61
2023-05-10T19:42:53.823Z,61.91
2023-05-10T19:45:21.686Z,63.03
2023-05-10T19:47:48.918Z,61.65
2023-05-10T19:50:18.306Z,61.63
2023-05-10T19:52:46.279Z,62.28
2023-05-10T19:55:25.269Z,61.56
2023-05-10T19:57:52.809Z,62.41
2023-05-10T20:00:20.155Z,61.26
2023-05-10T20:02:49.741Z,60.69
2023-05-10T20:05:18.769Z,60.70
2023-05-10T20:07:46.071Z,60.57
2023-05-10T20:10:13.410Z,61.02
2023-05-10T20:12:40.648Z,60.68
2023-05-10T20:15:08.336Z,61.02
2023-05-10T20:17:36.170Z,62.16
2023-05-10T20:20:04.016Z,62.03
2023-05-10T20:22:32.623Z,61.58
2023-05-10T20:24:59.851Z,61.52
2023-05-10T20:27:28.216Z,61.82
2023-05-10T20:29:55.710Z,62.37
2023-05-10T20:32:23.585Z,62.38
2023-05-10T20:34:50.906Z,62.44
2023-05-10T20:37:18.297Z,61.71
2023-05-10T20:39:49.050Z,62.60
2023-05-10T20:42:17.530Z,62.04
2023-05-10T20:44:44.852Z,62.45
2023-05-10T20:47:12.103Z,62.57
2023-05-10T20:49:39.505Z,61.93
2023-05-10T20:52:07.097Z,61.64
2023-05-10T20:54:34.286Z,62.40
2023-05-10T20:57:02.844Z,61.81
2023-05-10T20:59:30.057Z,62.51
2023-05-10T21:01:57.521Z,62.28
2023-05-10T21:04:25.994Z,62.01
2023-05-10T21:06:53.411Z,62.21
2023-05-10T21:09:20.812Z,61.91
2023-05-10T21:11:49.241Z,62.58
2023-05-10T21:14:18.029Z,62.29
2023-05-10T21:16:45.376Z,63.00
2023-05-10T21:19:12.658Z,62.99
2023-05-10T21:21:40.023Z,62.73
2023-05-10T21:24:07.711Z,63.48
2023-05-10T21:26:35.161Z,62.61
2023-05-10T21:29:04.927Z,63.24
2023-05-10T21:31:33.837Z,63.18
2023-05-10T21:34:01.114Z,63.58
2023-05-10T21:36:28.368Z,63.44
2023-05-10T21:38:55.555Z,63.26
2023-05-10T21:41:22.746Z,62.89
2023-05-10T21:43:49.934Z,63.08
2023-05-10T21:46:17.200Z,63.20
2023-05-10T21:48:45.774Z,63.47
2023-05-10T21:51:12.952Z,63.92
2023-05-10T21:53:40.607Z,63.84
2023-05-10T21:56:07.803Z,64.25
2023-05-10T21:58:35.041Z,64.16
2023-05-10T22:01:02.283Z,64.08
2023-05-10T22:03:29.786Z,64.07
2023-05-10T22:05:58.449Z,64.22
2023-05-10T22:08:25.754Z,64.61
2023-05-10T22:10:52.926Z,64.45
2023-05-10T22:13:20.156Z,64.66
2023-05-10T22:15:47.351Z,65.49
2023-05-10T22:18:14.538Z,64.70
2023-05-10T22:20:44.238Z,64.68
2023-05-10T22:23:12.948Z,65.23
2023-05-10T22:25:40.127Z,65.67
2023-05-10T22:28:08.104Z,65.05
2023-05-10T22:30:35.381Z,65.52
2023-05-10T22:33:02.886Z,65.60
2023-05-10T22:35:30.362Z,65.51
2023-05-10T22:37:57.611Z,65.27
2023-05-10T22:40:26.348Z,65.51
2023-05-10T22:42:53.588Z,66.03
2023-05-10T22:45:20.875Z,65.65
2023-05-10T22:47:48.157Z,66.44
2023-05-10T22:50:16.531Z,65.85
2023-05-10T22:52:43.945Z,65.73
2023-05-10T22:55:11.454Z,66.44
2023-05-10T22:57:40.458Z,66.86
2023-05-10T23:00:08.791Z,66.09
2023-05-10T23:02:36.094Z,66.08
2023-05-10T23:05:05.467Z,66.53
2023-05-10T23:07:33.088Z,66.20
2023-05-10T23:10:00.265Z,67.03
2023-05-10T23:12:28.118Z,65.91
2023-05-10T23:14:56.791Z,66.38
2023-05-10T23:17:24.133Z,67.11
2023-05-10T23:19:51.288Z,66.82
2023-05-10T23:22:18.475Z,67.47
2023-05-10T23:24:45.628Z,67.19
2023-05-10T23:27:12.817Z,67.07
2023-05-10T23:29:40.011Z,67.52
2023-05-10T23:32:08.740Z,66.66
2023-05-10T23:34:36.224Z,66.77
2023-05-10T23:37:03.460Z,66.76
2023-05-10T23:39:30.912Z,67.41
2023-05-10T23:41:58.139Z,67.28
2023-05-10T23:44:25.369Z,66.53
2023-05-10T23:46:52.571Z,66.25
2023-05-10T23:49:21.337Z,66.56
2023-05-10T23:51:48.554Z,66.59
2023-05-10T23:54:15.776Z,66.73
2023-05-10T23:56:43.081Z,66.66
2023-05-10T23:59:10.443Z,67.11
